createdAt,value
2023-06-07T00:00:51.697Z,47.05
2023-06-07T00:03:39.736Z,47.37
2023-06-07T00:06:10.370Z,47.51
2023-06-07T00:08:38.302Z,47.69
2023-06-07T00:11:09.184Z,47.91
2023-06-07T00:13:39.905Z,48.14
2023-06-07T00:16:07.993Z,48.45
2023-06-07T00:18:36.122Z,48.54
2023-06-07T00:21:05.815Z,48.72
2023-06-07T00:23:34.008Z,48.96
2023-06-07T00:26:02.724Z,48.95
2023-06-07T00:28:30.805Z,49.17
2023-06-07T00:30:58.690Z,49.32
2023-06-07T00:33:26.581Z,49.40
2023-06-07T00:35:54.630Z,49.57
2023-06-07T00:38:24.943Z,49.78
2023-06-07T00:40:53.204Z,49.93
2023-06-07T00:43:21.292Z,50.04
2023-06-07T00:45:49.182Z,50.17
2023-06-07T00:48:17.309Z,50.40
2023-06-07T00:50:46.290Z,50.41
2023-06-07T00:53:14.685Z,50.68
2023-06-07T00:55:43.524Z,50.44
2023-06-07T00:58:12.244Z,50.56
2023-06-07T01:00:40.538Z,50.24
2023-06-07T01:03:08.435Z,50.46
2023-06-07T01:05:37.158Z,50.51
2023-06-07T01:08:05.617Z,50.63
2023-06-07T01:10:33.623Z,50.35
2023-06-07T01:13:03.894Z,50.25
2023-06-07T01:15:33.515Z,50.18
2023-06-07T01:18:02.691Z,50.21
2023-06-07T01:20:32.726Z,50.24
2023-06-07T01:23:07.238Z,50.37
2023-06-07T01:25:35.044Z,50.39
2023-06-07T01:28:03.598Z,50.35
2023-06-07T01:30:32.876Z,50.29
2023-06-07T01:33:05.062Z,50.39
2023-06-07T01:35:34.891Z,50.46
2023-06-07T01:38:03.360Z,50.34
2023-06-07T01:40:35.406Z,50.40
2023-06-07T01:43:05.961Z,50.53
2023-06-07T01:45:34.618Z,50.46
2023-06-07T01:48:03.295Z,50.52
2023-06-07T01:50:31.722Z,50.49
2023-06-07T01:52:59.909Z,50.59
2023-06-07T01:55:28.986Z,50.70
2023-06-07T01:58:01.641Z,50.67
2023-06-07T02:00:43.853Z,50.74
2023-06-07T02:03:20.234Z,50.86
2023-06-07T02:05:54.217Z,50.89
2023-06-07T02:08:34.021Z,50.99
2023-06-07T02:11:03.675Z,51.07
2023-06-07T02:13:36.086Z,51.26
2023-06-07T02:16:07.589Z,51.31
2023-06-07T02:18:42.043Z,51.53
2023-06-07T02:21:11.242Z,51.37
2023-06-07T02:23:39.477Z,51.35
2023-06-07T02:26:07.489Z,51.37
2023-06-07T02:28:35.459Z,51.40
2023-06-07T02:31:04.316Z,51.34
2023-06-07T02:33:32.270Z,51.38
2023-06-07T02:36:00.060Z,51.50
2023-06-07T02:38:28.732Z,51.66
2023-06-07T02:40:56.803Z,51.65
2023-06-07T02:43:24.597Z,51.79
2023-06-07T02:45:52.479Z,51.70
2023-06-07T02:48:20.865Z,51.82
2023-06-07T02:50:48.998Z,51.88
2023-06-07T02:53:16.818Z,52.02
2023-06-07T02:55:44.783Z,52.06
2023-06-07T02:58:12.682Z,52.13
2023-06-07T03:00:40.842Z,52.29
2023-06-07T03:03:09.024Z,52.35
2023-06-07T03:05:37.245Z,52.47
2023-06-07T03:08:06.734Z,52.50
2023-06-07T03:10:34.832Z,52.62
2023-06-07T03:13:03.834Z,52.70
2023-06-07T03:15:33.669Z,52.74
2023-06-07T03:18:02.494Z,52.76
2023-06-07T03:20:31.237Z,52.82
2023-06-07T03:22:59.082Z,52.94
2023-06-07T03:25:26.963Z,53.00
2023-06-07T03:27:54.999Z,53.01
2023-06-07T03:30:22.738Z,53.02
2023-06-07T03:32:51.033Z,52.89
2023-06-07T03:35:19.984Z,52.89
2023-06-07T03:37:48.363Z,52.98
2023-06-07T03:40:16.539Z,52.81
2023-06-07T03:42:44.484Z,52.88
2023-06-07T03:45:12.511Z,52.90
2023-06-07T03:47:41.353Z,52.74
2023-06-07T03:50:09.836Z,52.42
2023-06-07T03:52:37.817Z,52.35
2023-06-07T03:55:06.201Z,52.25
2023-06-07T03:57:34.068Z,52.01
2023-06-07T04:00:06.640Z,51.77
2023-06-07T04:02:35.906Z,51.94
2023-06-07T04:05:05.044Z,51.89
2023-06-07T04:07:33.315Z,51.61
2023-06-07T04:10:01.156Z,51.75
2023-06-07T04:12:29.146Z,51.52
2023-06-07T04:14:56.981Z,51.33
2023-06-07T04:17:24.894Z,50.77
2023-06-07T04:19:57.877Z,49.81
2023-06-07T04:22:27.277Z,48.75
2023-06-07T04:24:55.250Z,47.56
2023-06-07T04:27:24.464Z,46.70
2023-06-07T04:29:55.000Z,45.78
2023-06-07T04:32:23.393Z,44.88
2023-06-07T04:34:52.926Z,44.35
2023-06-07T04:37:20.928Z,43.68
2023-06-07T04:39:50.441Z,43.30
2023-06-07T04:42:19.167Z,43.35
2023-06-07T04:44:47.036Z,43.43
2023-06-07T04:47:15.062Z,43.54
2023-06-07T04:49:43.021Z,43.06
2023-06-07T04:52:13.780Z,42.66
2023-06-07T04:54:43.339Z,42.37
2023-06-07T04:57:12.264Z,42.43
2023-06-07T04:59:45.781Z,42.49
2023-06-07T05:02:13.769Z,42.58
2023-06-07T05:04:41.636Z,42.35
2023-06-07T05:07:10.110Z,42.28
2023-06-07T05:09:38.621Z,42.25
2023-06-07T05:12:07.602Z,42.78
2023-06-07T05:14:35.480Z,43.37
2023-06-07T05:17:03.303Z,43.85
2023-06-07T05:19:31.182Z,44.36
2023-06-07T05:21:59.446Z,44.36
2023-06-07T05:24:27.454Z,44.55
2023-06-07T05:26:55.244Z,44.54
2023-06-07T05:29:23.067Z,45.02
2023-06-07T05:31:51.199Z,45.01
2023-06-07T05:34:19.360Z,45.10
2023-06-07T05:36:47.466Z,45.28
2023-06-07T05:39:15.886Z,45.15
2023-06-07T05:41:44.121Z,44.84
2023-06-07T05:44:12.062Z,44.62
2023-06-07T05:46:40.041Z,44.97
2023-06-07T05:49:07.959Z,45.15
2023-06-07T05:51:35.814Z,45.52
2023-06-07T05:54:05.402Z,45.55
2023-06-07T05:56:33.279Z,45.10
2023-06-07T05:59:01.126Z,44.86
2023-06-07T06:01:30.633Z,44.85
2023-06-07T06:03:58.571Z,45.39
2023-06-07T06:06:26.397Z,45.27
2023-06-07T06:08:54.283Z,44.99
2023-06-07T06:11:22.109Z,45.04
2023-06-07T06:13:51.420Z,45.03
2023-06-07T06:16:19.310Z,45.57
2023-06-07T06:18:47.296Z,45.54
2023-06-07T06:21:15.519Z,45.44
2023-06-07T06:23:43.795Z,45.44
2023-06-07T06:26:12.111Z,45.30
2023-06-07T06:28:40.165Z,45.75
2023-06-07T06:31:08.308Z,46.09
2023-06-07T06:33:36.630Z,45.67
2023-06-07T06:36:05.168Z,45.67
2023-06-07T06:38:33.152Z,45.85
2023-06-07T06:41:01.265Z,45.91
2023-06-07T06:43:29.243Z,45.91
2023-06-07T06:45:57.292Z,46.01
2023-06-07T06:48:25.162Z,45.26
2023-06-07T06:50:53.251Z,45.07
2023-06-07T06:53:21.344Z,45.08
2023-06-07T06:55:49.515Z,44.77
2023-06-07T06:58:17.488Z,44.78
2023-06-07T07:00:45.535Z,44.73
2023-06-07T07:03:13.730Z,44.57
2023-06-07T07:05:41.689Z,44.81
2023-06-07T07:08:10.373Z,44.36
2023-06-07T07:10:38.639Z,43.92
2023-06-07T07:13:06.805Z,43.45
2023-06-07T07:15:34.664Z,42.78
2023-06-07T07:18:04.149Z,42.46
2023-06-07T07:20:32.260Z,42.47
2023-06-07T07:23:03.193Z,40.91
2023-06-07T07:25:31.384Z,39.59
2023-06-07T07:27:59.320Z,38.57
2023-06-07T07:30:27.265Z,37.45
2023-06-07T07:32:56.389Z,36.66
2023-06-07T07:35:25.236Z,36.09
2023-06-07T07:37:55.061Z,34.96
2023-06-07T07:40:23.459Z,33.90
2023-06-07T07:42:51.399Z,33.65
2023-06-07T07:45:19.264Z,32.91
2023-06-07T07:47:47.291Z,32.68
2023-06-07T07:50:17.666Z,31.73
2023-06-07T07:52:45.620Z,31.14
2023-06-07T07:55:13.536Z,30.50
2023-06-07T07:57:41.353Z,30.27
2023-06-07T08:00:11.926Z,30.48
2023-06-07T08:02:39.841Z,29.47
2023-06-07T08:05:08.826Z,29.58
2023-06-07T08:07:36.721Z,29.39
2023-06-07T08:10:06.488Z,29.56
2023-06-07T08:12:35.504Z,30.20
2023-06-07T08:15:04.109Z,30.62
2023-06-07T08:17:32.460Z,31.20
2023-06-07T08:20:00.618Z,31.41
2023-06-07T08:22:29.005Z,31.70
2023-06-07T08:24:56.959Z,31.53
2023-06-07T08:27:24.737Z,31.71
2023-06-07T08:29:52.738Z,32.40
2023-06-07T08:32:22.774Z,32.74
2023-06-07T08:34:51.415Z,32.83
2023-06-07T08:37:19.329Z,33.40
2023-06-07T08:39:48.274Z,33.44
2023-06-07T08:42:16.310Z,34.08
2023-06-07T08:44:44.423Z,34.26
2023-06-07T08:47:17.135Z,33.55
2023-06-07T08:49:46.169Z,33.85
2023-06-07T08:52:16.943Z,34.28
2023-06-07T08:54:48.505Z,33.92
2023-06-07T08:57:18.335Z,32.77
2023-06-07T08:59:47.893Z,32.69
2023-06-07T09:02:16.881Z,32.86
2023-06-07T09:04:46.179Z,33.10
2023-06-07T09:07:14.415Z,32.96
2023-06-07T09:09:45.041Z,32.67
2023-06-07T09:12:13.180Z,32.78
2023-06-07T09:14:41.875Z,32.49
2023-06-07T09:17:10.087Z,32.24
2023-06-07T09:19:42.380Z,32.05
2023-06-07T09:22:15.487Z,32.08
2023-06-07T09:24:44.722Z,32.09
2023-06-07T09:27:14.400Z,31.52
2023-06-07T09:29:44.569Z,31.18
2023-06-07T09:32:25.183Z,30.71
2023-06-07T09:35:11.738Z,28.79
2023-06-07T09:37:48.131Z,29.27
2023-06-07T09:40:16.516Z,29.66
2023-06-07T09:42:44.921Z,29.26
2023-06-07T09:45:18.582Z,28.96
2023-06-07T09:47:47.057Z,29.04
2023-06-07T09:50:16.020Z,28.70
2023-06-07T09:52:43.913Z,28.79
2023-06-07T09:55:28.586Z,28.96
2023-06-07T09:57:57.136Z,29.19
2023-06-07T10:00:27.021Z,29.82
2023-06-07T10:03:06.804Z,30.21
2023-06-07T10:05:36.190Z,29.86
2023-06-07T10:08:05.903Z,29.41
2023-06-07T10:10:36.168Z,29.53
2023-06-07T10:13:06.299Z,29.46
2023-06-07T10:15:35.717Z,29.44
2023-06-07T10:18:17.742Z,29.79
2023-06-07T10:20:53.484Z,29.40
2023-06-07T10:23:58.813Z,29.15
2023-06-07T10:26:42.185Z,29.10
2023-06-07T10:29:21.306Z,28.73
2023-06-07T10:32:04.143Z,29.16
2023-06-07T10:34:33.587Z,29.02
2023-06-07T10:37:03.367Z,29.27
2023-06-07T10:39:31.450Z,29.50
2023-06-07T10:42:00.282Z,29.39
2023-06-07T10:44:29.714Z,28.84
2023-06-07T10:47:22.470Z,28.69
2023-06-07T10:49:54.815Z,28.27
2023-06-07T10:52:24.506Z,27.95
2023-06-07T10:54:53.080Z,27.48
2023-06-07T10:57:38.516Z,27.61
2023-06-07T11:00:31.885Z,27.21
2023-06-07T11:03:06.558Z,27.63
2023-06-07T11:05:54.764Z,27.81
2023-06-07T11:08:30.304Z,28.13
2023-06-07T11:11:02.974Z,28.14
2023-06-07T11:13:40.182Z,27.52
2023-06-07T11:16:27.375Z,27.99
2023-06-07T11:18:57.398Z,27.29
2023-06-07T11:21:28.826Z,27.39
2023-06-07T11:24:15.979Z,27.34
2023-06-07T11:26:44.609Z,27.23
2023-06-07T11:29:13.320Z,26.92
2023-06-07T11:31:41.858Z,27.01
2023-06-07T11:34:15.766Z,26.72
2023-06-07T11:36:44.758Z,26.72
2023-06-07T11:39:18.052Z,27.21
2023-06-07T11:41:48.261Z,26.72
2023-06-07T11:44:16.677Z,26.42
2023-06-07T11:46:46.093Z,26.29
2023-06-07T11:49:14.298Z,26.27
2023-06-07T11:51:42.714Z,26.56
2023-06-07T11:54:11.100Z,26.68
2023-06-07T11:56:39.929Z,26.51
2023-06-07T11:59:11.152Z,26.62
2023-06-07T12:01:44.328Z,27.06
2023-06-07T12:04:12.872Z,26.99
2023-06-07T12:06:42.367Z,26.79
2023-06-07T12:09:13.483Z,26.77
2023-06-07T12:11:41.638Z,26.64
2023-06-07T12:14:11.164Z,26.84
2023-06-07T12:16:40.217Z,26.74
2023-06-07T12:19:08.159Z,26.53
2023-06-07T12:21:36.021Z,26.69
2023-06-07T12:24:05.281Z,26.61
2023-06-07T12:26:37.960Z,26.79
2023-06-07T12:29:07.140Z,26.74
2023-06-07T12:31:40.708Z,27.10
2023-06-07T12:34:11.689Z,26.94
2023-06-07T12:36:40.580Z,26.61
2023-06-07T12:39:11.180Z,26.11
2023-06-07T12:41:40.276Z,25.96
2023-06-07T12:44:10.619Z,25.98
2023-06-07T12:46:38.730Z,26.10
2023-06-07T12:49:07.398Z,25.92
2023-06-07T12:51:36.095Z,25.96
2023-06-07T12:54:04.935Z,25.68
2023-06-07T12:56:33.539Z,25.20
2023-06-07T12:59:03.154Z,25.05
2023-06-07T13:01:32.499Z,24.86
2023-06-07T13:04:01.251Z,24.85
2023-06-07T13:06:29.816Z,25.04
2023-06-07T13:09:09.242Z,25.64
2023-06-07T13:11:41.051Z,25.45
2023-06-07T13:14:09.069Z,25.35
2023-06-07T13:16:38.090Z,25.06
2023-06-07T13:19:06.067Z,25.19
2023-06-07T13:21:34.063Z,25.39
2023-06-07T13:24:02.237Z,25.18
2023-06-07T13:26:30.507Z,25.52
2023-06-07T13:28:58.801Z,24.96
2023-06-07T13:31:27.107Z,24.59
2023-06-07T13:33:55.037Z,24.62
2023-06-07T13:36:24.131Z,24.97
2023-06-07T13:38:52.212Z,24.40
2023-06-07T13:41:21.297Z,24.53
2023-06-07T13:44:03.609Z,25.09
2023-06-07T13:46:36.250Z,24.93
2023-06-07T13:49:04.236Z,24.69
2023-06-07T13:51:35.458Z,24.92
2023-06-07T13:54:03.574Z,24.90
2023-06-07T13:56:31.670Z,24.84
2023-06-07T13:59:01.080Z,24.75
2023-06-07T14:01:30.539Z,25.14
2023-06-07T14:04:00.023Z,25.27
2023-06-07T14:06:28.617Z,25.08
2023-06-07T14:08:56.723Z,25.09
2023-06-07T14:11:25.802Z,25.56
2023-06-07T14:13:53.714Z,25.07
2023-06-07T14:16:22.086Z,24.94
2023-06-07T14:18:50.057Z,24.93
2023-06-07T14:21:18.093Z,25.29
2023-06-07T14:23:46.435Z,25.19
2023-06-07T14:26:16.203Z,25.70
2023-06-07T14:28:46.950Z,25.47
2023-06-07T14:31:16.346Z,25.46
2023-06-07T14:33:45.023Z,26.01
2023-06-07T14:36:12.967Z,25.57
2023-06-07T14:38:41.101Z,25.43
2023-06-07T14:41:09.243Z,25.58
2023-06-07T14:43:37.190Z,25.02
2023-06-07T14:46:05.682Z,25.04
2023-06-07T14:48:33.721Z,25.19
2023-06-07T14:51:01.657Z,25.63
2023-06-07T14:53:29.573Z,25.65
2023-06-07T14:55:57.417Z,25.59
2023-06-07T14:58:25.433Z,25.53
2023-06-07T15:00:53.415Z,25.39
2023-06-07T15:03:21.575Z,25.27
2023-06-07T15:05:50.009Z,25.38
2023-06-07T15:08:17.840Z,25.35
2023-06-07T15:10:45.777Z,25.26
2023-06-07T15:13:13.596Z,25.13
2023-06-07T15:15:42.472Z,25.21
2023-06-07T15:18:10.437Z,25.25
2023-06-07T15:20:38.366Z,25.29
2023-06-07T15:23:06.179Z,25.33
2023-06-07T15:25:34.300Z,24.85
2023-06-07T15:28:02.336Z,24.86
2023-06-07T15:30:31.292Z,24.78
2023-06-07T15:32:59.154Z,24.64
2023-06-07T15:35:27.088Z,24.66
2023-06-07T15:37:54.930Z,24.69
2023-06-07T15:40:23.363Z,24.85
2023-06-07T15:42:51.309Z,24.76
2023-06-07T15:45:19.377Z,24.98
2023-06-07T15:48:01.721Z,25.24
2023-06-07T15:50:30.656Z,24.96
2023-06-07T15:52:59.365Z,24.88
2023-06-07T15:55:29.060Z,24.76
2023-06-07T15:57:57.251Z,24.86
2023-06-07T16:00:37.770Z,24.87
2023-06-07T16:03:09.676Z,25.01
2023-06-07T16:05:38.330Z,25.12
2023-06-07T16:08:13.568Z,25.20
2023-06-07T16:10:42.347Z,25.05
2023-06-07T16:13:10.292Z,25.25
2023-06-07T16:15:38.714Z,25.53
2023-06-07T16:18:06.872Z,25.47
2023-06-07T16:20:35.175Z,25.40
2023-06-07T16:23:03.458Z,25.51
2023-06-07T16:25:31.301Z,25.48
2023-06-07T16:27:59.131Z,25.54
2023-06-07T16:30:27.828Z,25.72
2023-06-07T16:32:56.007Z,25.63
2023-06-07T16:35:23.889Z,25.63
2023-06-07T16:37:51.811Z,25.71
2023-06-07T16:40:19.682Z,25.84
2023-06-07T16:42:48.841Z,25.95
2023-06-07T16:45:16.839Z,25.96
2023-06-07T16:47:46.378Z,25.86
2023-06-07T16:50:14.474Z,25.62
2023-06-07T16:52:42.423Z,25.63
2023-06-07T16:55:10.477Z,25.72
2023-06-07T16:57:40.425Z,25.89
2023-06-07T17:00:09.547Z,26.05
2023-06-07T17:02:37.547Z,26.33
2023-06-07T17:05:07.664Z,26.37
2023-06-07T17:07:36.317Z,25.97
2023-06-07T17:10:05.114Z,25.99
2023-06-07T17:12:33.581Z,26.23
2023-06-07T17:15:01.609Z,26.40
2023-06-07T17:17:29.638Z,26.28
2023-06-07T17:19:57.766Z,26.00
2023-06-07T17:22:25.769Z,26.12
2023-06-07T17:24:53.596Z,26.36
2023-06-07T17:27:21.490Z,26.57
2023-06-07T17:29:49.396Z,26.60
2023-06-07T17:32:17.215Z,26.81
2023-06-07T17:34:45.054Z,26.87
2023-06-07T17:37:15.213Z,27.23
2023-06-07T17:39:43.804Z,27.34
2023-06-07T17:42:14.658Z,27.48
2023-06-07T17:44:42.616Z,27.53
2023-06-07T17:47:11.468Z,27.83
2023-06-07T17:49:40.372Z,28.31
2023-06-07T17:52:21.598Z,28.59
2023-06-07T17:54:50.992Z,28.62
2023-06-07T17:57:18.866Z,28.89
2023-06-07T17:59:46.845Z,29.19
2023-06-07T18:02:14.926Z,29.44
2023-06-07T18:04:42.956Z,29.33
2023-06-07T18:07:10.878Z,29.60
2023-06-07T18:09:39.918Z,29.77
2023-06-07T18:12:10.651Z,30.13
2023-06-07T18:14:39.987Z,30.50
2023-06-07T18:17:10.052Z,30.47
2023-06-07T18:19:39.102Z,30.80
2023-06-07T18:22:07.055Z,31.35
2023-06-07T18:24:35.964Z,31.67
2023-06-07T18:27:04.665Z,31.94
2023-06-07T18:29:33.523Z,32.95
2023-06-07T18:32:01.568Z,32.40
2023-06-07T18:34:29.578Z,32.53
2023-06-07T18:36:57.523Z,32.92
2023-06-07T18:39:25.648Z,33.68
2023-06-07T18:41:53.571Z,34.49
2023-06-07T18:44:21.609Z,34.22
2023-06-07T18:46:49.784Z,34.68
2023-06-07T18:49:18.895Z,35.23
2023-06-07T18:51:46.683Z,35.70
2023-06-07T18:54:14.601Z,35.43
2023-06-07T18:56:42.524Z,36.40
2023-06-07T18:59:10.670Z,36.60
2023-06-07T19:01:50.934Z,36.86
2023-06-07T19:04:20.011Z,37.01
2023-06-07T19:06:51.363Z,37.21
2023-06-07T19:09:19.727Z,37.08
2023-06-07T19:11:47.719Z,37.33
2023-06-07T19:14:17.337Z,36.83
2023-06-07T19:16:47.077Z,36.85
2023-06-07T19:19:14.999Z,37.75
2023-06-07T19:21:43.427Z,37.44
2023-06-07T19:24:11.291Z,37.21
2023-06-07T19:26:39.289Z,37.29
2023-06-07T19:29:07.333Z,39.47
2023-06-07T19:31:35.512Z,40.01
2023-06-07T19:34:06.836Z,39.89
2023-06-07T19:36:36.756Z,39.73
2023-06-07T19:39:04.678Z,40.65
2023-06-07T19:41:32.813Z,40.46
2023-06-07T19:44:00.762Z,39.90
2023-06-07T19:46:28.714Z,40.37
2023-06-07T19:48:58.510Z,40.75
2023-06-07T19:51:26.347Z,39.81
2023-06-07T19:53:57.884Z,39.61
2023-06-07T19:56:27.296Z,39.73
2023-06-07T19:58:55.451Z,39.87
2023-06-07T20:01:23.294Z,40.05
2023-06-07T20:03:51.270Z,40.39
2023-06-07T20:06:19.162Z,40.49
2023-06-07T20:08:46.961Z,40.62
2023-06-07T20:11:14.874Z,40.78
2023-06-07T20:13:42.660Z,40.74
2023-06-07T20:16:10.754Z,40.96
2023-06-07T20:18:38.797Z,41.48
2023-06-07T20:21:06.748Z,41.48
2023-06-07T20:23:34.711Z,41.71
2023-06-07T20:26:02.546Z,41.68
2023-06-07T20:28:30.733Z,41.27
2023-06-07T20:30:59.267Z,41.10
2023-06-07T20:33:29.590Z,41.19
2023-06-07T20:35:58.115Z,41.39
2023-06-07T20:38:27.482Z,41.39
2023-06-07T20:40:55.458Z,41.56
2023-06-07T20:43:23.615Z,43.08
2023-06-07T20:45:51.597Z,43.72
2023-06-07T20:48:19.523Z,44.28
2023-06-07T20:50:47.542Z,43.98
2023-06-07T20:53:15.525Z,44.65
2023-06-07T20:55:43.465Z,43.12
2023-06-07T20:58:11.426Z,42.48
2023-06-07T21:00:41.863Z,42.23
2023-06-07T21:03:09.877Z,42.25
2023-06-07T21:05:37.971Z,42.43
2023-06-07T21:08:06.141Z,42.73
2023-06-07T21:10:35.986Z,42.68
2023-06-07T21:13:04.418Z,42.59
2023-06-07T21:15:32.482Z,42.61
2023-06-07T21:18:00.668Z,42.55
2023-06-07T21:20:28.662Z,42.69
2023-06-07T21:22:56.930Z,42.94
2023-06-07T21:25:25.001Z,43.00
2023-06-07T21:27:53.119Z,43.15
2023-06-07T21:30:21.391Z,43.21
2023-06-07T21:32:49.437Z,43.46
2023-06-07T21:35:17.460Z,43.53
2023-06-07T21:37:45.655Z,43.61
2023-06-07T21:40:13.655Z,43.53
2023-06-07T21:42:41.553Z,43.52
2023-06-07T21:45:10.287Z,43.88
2023-06-07T21:47:38.188Z,44.11
2023-06-07T21:50:06.866Z,44.22
2023-06-07T21:52:35.301Z,44.18
2023-06-07T21:55:03.325Z,44.23
2023-06-07T21:57:32.307Z,44.46
2023-06-07T22:00:00.555Z,44.90
2023-06-07T22:02:29.691Z,44.83
2023-06-07T22:04:59.517Z,44.91
2023-06-07T22:07:29.771Z,44.84
2023-06-07T22:10:00.516Z,45.00
2023-06-07T22:12:30.391Z,45.21
2023-06-07T22:15:01.757Z,45.53
2023-06-07T22:17:30.008Z,45.76
2023-06-07T22:19:59.261Z,46.10
2023-06-07T22:22:28.222Z,46.01
2023-06-07T22:24:56.671Z,45.51
2023-06-07T22:27:24.467Z,45.63
2023-06-07T22:29:54.225Z,45.85
2023-06-07T22:32:28.946Z,45.69
2023-06-07T22:35:04.968Z,45.76
2023-06-07T22:37:34.690Z,46.16
2023-06-07T22:40:08.233Z,46.08
2023-06-07T22:42:36.834Z,46.23
2023-06-07T22:45:05.470Z,46.71
2023-06-07T22:47:33.670Z,46.79
2023-06-07T22:50:02.539Z,47.01
2023-06-07T22:52:35.974Z,47.19
2023-06-07T22:55:04.246Z,47.21
2023-06-07T22:57:33.009Z,47.07
2023-06-07T23:00:03.019Z,47.13
2023-06-07T23:02:32.328Z,47.35
2023-06-07T23:05:00.728Z,47.80
2023-06-07T23:07:31.010Z,47.85
2023-06-07T23:09:59.004Z,48.09
2023-06-07T23:12:26.903Z,48.25
2023-06-07T23:14:54.880Z,48.43
2023-06-07T23:17:24.077Z,48.56
2023-06-07T23:19:52.043Z,48.66
2023-06-07T23:22:20.620Z,48.78
2023-06-07T23:24:49.256Z,48.86
2023-06-07T23:27:17.487Z,48.74
2023-06-07T23:29:45.633Z,48.72
2023-06-07T23:32:13.814Z,48.75
2023-06-07T23:34:42.283Z,48.87
2023-06-07T23:37:10.556Z,48.96
2023-06-07T23:39:38.579Z,48.94
2023-06-07T23:42:06.926Z,49.01
2023-06-07T23:44:35.067Z,48.98
2023-06-07T23:47:03.248Z,48.93
2023-06-07T23:49:36.249Z,48.94
2023-06-07T23:52:04.732Z,49.03
2023-06-07T23:54:32.776Z,49.08
2023-06-07T23:57:00.888Z,49.18
2023-06-07T23:59:29.568Z,49.25
